Terminal Aerodrome Forecast
Issued by NWS

Home | Current Version | Previous Version | Text Only | Print | Product List | Glossary On
Versions: 1 2 3 4 5 6 7 8 9 10 11 12 13
000
FTUS42 KTBW 201720
TAFLAL
TAF
KLAL 201720Z 2018/2118 07006KT P6SM BKN040
     FM202100 06007KT P6SM SCT050
     FM210500 VRB03KT P6SM FEW090=

USA.gov is the U.S. government's official web portal to all federal, state and local government web resources and services.